Terminal Aerodrome Forecast
Issued by NWS Sterling, VA

Current Version | Previous Version | Graphics & Text | Print | Product List | Glossary On
Versions: 1 2 3 4 5 6 7 8 9 10 11 12 13 14 15 16 17 18 19 20 21 22 23
925
FTUS41 KLWX 301329 AAB
TAFDCA
TAF AMD
KDCA 301329Z 3013/3112 VRB03KT P6SM SCT020 OVC080
     FM311100 33004KT 3SM BR BKN200 BKN250=

USA.gov is the U.S. government's official web portal to all federal, state and local government web resources and services.